Startpagina
METAR-TAF:

METAR-TAF

Vliegvelden :

Diepholz, Duitsland

breedte: 52-35N, lengte: 008-21E, hoogte: 39 m

Actueel weer

Dit bericht is 23 minuten geleden gemaakt, om 04:20 UTC
Wind 7 kt uit het westen
Temperatuur 1°C
Vochtigheid 86%
Druk 1021 hPa
Zicht 10 km of meer
Gebroken wolken op 20000 ft

METAR: ETND 120420Z 27007KT 9999 BKN200 01/M01 Q1021 BLU+

Tijdstip: 06:43 (04:43 UTC)


TAF: ontbreekt

Waarnemingen en weersverwachtingen van meer dan 4000 vliegvelden (METAR en TAF).

De beschikbare stations zijn de gele en rode punten op de kaart.

Ga met uw muis naar het station om de naam te zien.

Klik dan om waarnemingen en weersverwachtingen te zien.

kaart wijzigen: klik op de groene knoppen met een zwart kruis om in te zoomen, op de groene knop met een streepje om uit te zoomen of op de groene pijlen voor aangrenzende kaarten.


METAR-TAF: